This is the latest recevied weather packets stored in our database for station/object IW2DGQ-3. If no packets are shown the sender has not sent any weather packets the latest 10 day(s).
| Time | Temp. | Humidity | Pressure | Rain* | Wind** | Luminosity | Snow |
|---|---|---|---|---|---|---|---|
| 1787636362 | 27.22° C | 72% | 1010.9 hPa | - | - | - | - |
| 1787635162 | 20.56° C | 89% | 1010.8 hPa | - | - | - | - |
| 1787633962 | 19.44° C | 89% | 1010.8 hPa | - | - | - | - |
| 1787632761 | 18.89° C | 89% | 1011 hPa | - | - | - | - |
| 1787631561 | 18.89° C | 89% | 1010.8 hPa | - | - | - | - |
| 1787630361 | 18.89° C | 89% | 1010.9 hPa | - | - | - | - |
| 1787629161 | 18.89° C | 91% | 1010.7 hPa | - | - | - | - |
| 1787627960 | 18.33° C | 94% | 1011.2 hPa | - | - | - | - |
| 1787626760 | 18.33° C | 96% | 1011.4 hPa | - | - | - | - |
| 1787625559 | 18.33° C | 98% | 1011.5 hPa | - | - | - | - |
| 1787624359 | 17.78° C | 99% | 1012.1 hPa | - | - | - | - |
| 1787623159 | 18.33° C | 98% | 1012.1 hPa | - | - | - | - |
| 1787621959 | 19.44° C | 97% | 1012.8 hPa | - | - | - | - |
| 1787620758 | 20° C | 97% | 1012.3 hPa | - | - | - | - |
| 1787619558 | 20.56° C | 95% | 1013.4 hPa | - | - | - | - |
| 1787618358 | 21.11° C | 91% | 1013.8 hPa | - | - | - | - |
| 1787617157 | 22.22° C | 76% | 1012.1 hPa | - | - | - | - |
| 1787615957 | 22.22° C | 83% | 1012.4 hPa | - | - | - | - |
| 1787614757 | 21.67° C | 90% | 1013 hPa | - | - | - | - |
| 1787613556 | 21.67° C | 85% | 1013.3 hPa | - | - | - | - |
| 1787612356 | 23.33° C | 64% | 1013.3 hPa | - | - | - | - |
| 1787611156 | 22.78° C | 64% | 1013.1 hPa | - | - | - | - |
| 1787609956 | 22.78° C | 63% | 1012.7 hPa | - | - | - | - |
| 1787608755 | 23.33° C | 62% | 1013.1 hPa | - | - | - | - |
| 1787607555 | 23.33° C | 61% | 1013.8 hPa | - | - | - | - |
* Rain since midnight (hover to see other rain measurements)
** Current wind speed in m/s (hover to see current wind gust speed)